sensor_id;sensor_type;location;lat;lon;timestamp;P1;durP1;ratioP1;P2;durP2;ratioP2
41167;SDS011;26906;45.658;9.272;2023-03-01T06:34:10;29.95;;;21.77;;
41167;SDS011;26906;45.658;9.272;2023-03-01T06:36:39;37.13;;;23.58;;
41167;SDS011;26906;45.658;9.272;2023-03-01T06:39:05;35.25;;;23.42;;
41167;SDS011;26906;45.658;9.272;2023-03-01T06:41:32;38.22;;;24.95;;
41167;SDS011;26906;45.658;9.272;2023-03-01T06:43:58;35.15;;;23.60;;
41167;SDS011;26906;45.658;9.272;2023-03-01T06:46:24;35.03;;;23.85;;
41167;SDS011;26906;45.658;9.272;2023-03-01T06:48:50;42.60;;;23.33;;
41167;SDS011;26906;45.658;9.272;2023-03-01T06:51:15;37.90;;;25.23;;
41167;SDS011;26906;45.658;9.272;2023-03-01T06:53:41;31.95;;;23.08;;
41167;SDS011;26906;45.658;9.272;2023-03-01T06:56:06;34.45;;;25.20;;
41167;SDS011;26906;45.658;9.272;2023-03-01T06:58:34;37.53;;;24.40;;
41167;SDS011;26906;45.658;9.272;2023-03-01T07:01:00;42.35;;;25.95;;
41167;SDS011;26906;45.658;9.272;2023-03-01T07:03:31;46.10;;;24.67;;
41167;SDS011;26906;45.658;9.272;2023-03-01T07:05:56;37.50;;;26.13;;
41167;SDS011;26906;45.658;9.272;2023-03-01T07:08:22;37.92;;;24.85;;
41167;SDS011;26906;45.658;9.272;2023-03-01T07:10:57;39.92;;;25.38;;
41167;SDS011;26906;45.658;9.272;2023-03-01T07:13:23;41.17;;;25.45;;
41167;SDS011;26906;45.658;9.272;2023-03-01T07:15:49;35.65;;;24.80;;
41167;SDS011;26906;45.658;9.272;2023-03-01T07:18:15;36.05;;;24.35;;
41167;SDS011;26906;45.658;9.272;2023-03-01T07:20:40;46.83;;;25.05;;
41167;SDS011;26906;45.658;9.272;2023-03-01T07:23:06;37.30;;;25.67;;
41167;SDS011;26906;45.658;9.272;2023-03-01T07:25:32;40.92;;;25.02;;
41167;SDS011;26906;45.658;9.272;2023-03-01T07:27:58;38.78;;;25.08;;
41167;SDS011;26906;45.658;9.272;2023-03-01T07:30:24;40.30;;;25.77;;
41167;SDS011;26906;45.658;9.272;2023-03-01T07:32:52;41.78;;;26.63;;
41167;SDS011;26906;45.658;9.272;2023-03-01T07:35:18;44.28;;;26.38;;
41167;SDS011;26906;45.658;9.272;2023-03-01T07:37:44;35.10;;;25.70;;
41167;SDS011;26906;45.658;9.272;2023-03-01T07:40:10;38.22;;;25.80;;
41167;SDS011;26906;45.658;9.272;2023-03-01T07:42:36;46.53;;;27.98;;
41167;SDS011;26906;45.658;9.272;2023-03-01T07:45:03;44.60;;;26.92;;
41167;SDS011;26906;45.658;9.272;2023-03-01T07:47:30;37.53;;;26.30;;
41167;SDS011;26906;45.658;9.272;2023-03-01T07:49:56;45.22;;;28.88;;
41167;SDS011;26906;45.658;9.272;2023-03-01T07:52:22;38.25;;;26.75;;
41167;SDS011;26906;45.658;9.272;2023-03-01T07:54:47;47.78;;;27.85;;
41167;SDS011;26906;45.658;9.272;2023-03-01T07:57:13;38.95;;;27.98;;
41167;SDS011;26906;45.658;9.272;2023-03-01T07:59:39;46.15;;;29.13;;
41167;SDS011;26906;45.658;9.272;2023-03-01T08:02:08;47.45;;;27.73;;
41167;SDS011;26906;45.658;9.272;2023-03-01T08:04:34;46.05;;;29.48;;
41167;SDS011;26906;45.658;9.272;2023-03-01T08:07:00;44.40;;;29.58;;
41167;SDS011;26906;45.658;9.272;2023-03-01T08:09:26;49.03;;;29.25;;
41167;SDS011;26906;45.658;9.272;2023-03-01T08:11:51;46.53;;;28.92;;
41167;SDS011;26906;45.658;9.272;2023-03-01T08:14:17;57.97;;;30.50;;
41167;SDS011;26906;45.658;9.272;2023-03-01T08:16:43;42.67;;;29.95;;
41167;SDS011;26906;45.658;9.272;2023-03-01T08:19:09;46.25;;;28.98;;
41167;SDS011;26906;45.658;9.272;2023-03-01T08:21:36;45.75;;;29.00;;
41167;SDS011;26906;45.658;9.272;2023-03-01T08:24:03;46.60;;;29.52;;
41167;SDS011;26906;45.658;9.272;2023-03-01T08:26:31;45.85;;;27.42;;
41167;SDS011;26906;45.658;9.272;2023-03-01T08:28:57;43.92;;;28.98;;
41167;SDS011;26906;45.658;9.272;2023-03-01T08:31:25;44.78;;;28.85;;
41167;SDS011;26906;45.658;9.272;2023-03-01T08:33:54;45.25;;;29.35;;
41167;SDS011;26906;45.658;9.272;2023-03-01T08:36:26;44.05;;;28.27;;
41167;SDS011;26906;45.658;9.272;2023-03-01T08:38:53;46.20;;;28.52;;
41167;SDS011;26906;45.658;9.272;2023-03-01T08:41:19;41.65;;;28.92;;
41167;SDS011;26906;45.658;9.272;2023-03-01T08:43:45;40.55;;;29.83;;
41167;SDS011;26906;45.658;9.272;2023-03-01T08:46:11;42.33;;;29.52;;
41167;SDS011;26906;45.658;9.272;2023-03-01T08:48:38;50.47;;;30.50;;
41167;SDS011;26906;45.658;9.272;2023-03-01T08:51:11;45.97;;;30.08;;
41167;SDS011;26906;45.658;9.272;2023-03-01T08:53:39;44.03;;;29.33;;
41167;SDS011;26906;45.658;9.272;2023-03-01T08:56:05;41.75;;;27.88;;
41167;SDS011;26906;45.658;9.272;2023-03-01T08:58:31;38.88;;;27.58;;
41167;SDS011;26906;45.658;9.272;2023-03-01T09:00:57;49.03;;;28.15;;
41167;SDS011;26906;45.658;9.272;2023-03-01T09:03:23;37.78;;;27.60;;
41167;SDS011;26906;45.658;9.272;2023-03-01T09:05:50;39.75;;;25.85;;
41167;SDS011;26906;45.658;9.272;2023-03-01T09:08:17;36.33;;;25.05;;
41167;SDS011;26906;45.658;9.272;2023-03-01T09:10:43;39.63;;;25.60;;
41167;SDS011;26906;45.658;9.272;2023-03-01T09:13:09;39.42;;;23.20;;
41167;SDS011;26906;45.658;9.272;2023-03-01T09:15:36;33.17;;;21.55;;
41167;SDS011;26906;45.658;9.272;2023-03-01T09:18:03;30.70;;;21.55;;
41167;SDS011;26906;45.658;9.272;2023-03-01T09:20:29;30.30;;;20.75;;
41167;SDS011;26906;45.658;9.272;2023-03-01T09:22:56;30.83;;;21.10;;
41167;SDS011;26906;45.658;9.272;2023-03-01T09:25:22;43.92;;;20.92;;
41167;SDS011;26906;45.658;9.272;2023-03-01T09:27:50;29.48;;;20.45;;
41167;SDS011;26906;45.658;9.272;2023-03-01T09:30:17;31.52;;;20.40;;
41167;SDS011;26906;45.658;9.272;2023-03-01T09:32:43;29.02;;;19.42;;
41167;SDS011;26906;45.658;9.272;2023-03-01T09:35:10;36.58;;;19.73;;
41167;SDS011;26906;45.658;9.272;2023-03-01T09:37:36;37.10;;;19.63;;
41167;SDS011;26906;45.658;9.272;2023-03-01T09:40:04;23.98;;;15.30;;
41167;SDS011;26906;45.658;9.272;2023-03-01T09:42:33;24.45;;;15.70;;
41167;SDS011;26906;45.658;9.272;2023-03-01T09:45:04;25.08;;;16.25;;
41167;SDS011;26906;45.658;9.272;2023-03-01T09:47:44;23.92;;;16.92;;
41167;SDS011;26906;45.658;9.272;2023-03-01T09:50:12;24.48;;;16.35;;
41167;SDS011;26906;45.658;9.272;2023-03-01T09:55:27;24.67;;;15.95;;
41167;SDS011;26906;45.658;9.272;2023-03-01T10:00:49;25.70;;;16.67;;
41167;SDS011;26906;45.658;9.272;2023-03-01T10:03:23;23.98;;;16.98;;
41167;SDS011;26906;45.658;9.272;2023-03-01T10:08:40;29.20;;;18.83;;
41167;SDS011;26906;45.658;9.272;2023-03-01T10:11:21;29.15;;;18.30;;
41167;SDS011;26906;45.658;9.272;2023-03-01T10:14:03;23.33;;;17.23;;
41167;SDS011;26906;45.658;9.272;2023-03-01T10:16:57;28.08;;;17.80;;
41167;SDS011;26906;45.658;9.272;2023-03-01T10:19:32;29.17;;;17.90;;
41167;SDS011;26906;45.658;9.272;2023-03-01T10:22:21;26.42;;;18.35;;
41167;SDS011;26906;45.658;9.272;2023-03-01T10:24:53;31.52;;;19.25;;
41167;SDS011;26906;45.658;9.272;2023-03-01T10:27:32;27.25;;;19.20;;
41167;SDS011;26906;45.658;9.272;2023-03-01T10:30:06;30.63;;;20.27;;
41167;SDS011;26906;45.658;9.272;2023-03-01T10:32:34;31.13;;;20.48;;
41167;SDS011;26906;45.658;9.272;2023-03-01T10:35:00;31.75;;;21.13;;
41167;SDS011;26906;45.658;9.272;2023-03-01T10:37:27;34.58;;;20.55;;
41167;SDS011;26906;45.658;9.272;2023-03-01T10:39:57;31.15;;;20.42;;
41167;SDS011;26906;45.658;9.272;2023-03-01T10:42:27;29.42;;;20.65;;
41167;SDS011;26906;45.658;9.272;2023-03-01T10:44:55;34.67;;;20.48;;
41167;SDS011;26906;45.658;9.272;2023-03-01T10:47:25;31.10;;;21.42;;
41167;SDS011;26906;45.658;9.272;2023-03-01T10:49:53;28.92;;;20.08;;
41167;SDS011;26906;45.658;9.272;2023-03-01T10:55:23;29.08;;;22.05;;
41167;SDS011;26906;45.658;9.272;2023-03-01T10:58:06;30.27;;;21.13;;
41167;SDS011;26906;45.658;9.272;2023-03-01T11:00:31;35.40;;;21.33;;
41167;SDS011;26906;45.658;9.272;2023-03-01T11:05:24;31.33;;;21.15;;
41167;SDS011;26906;45.658;9.272;2023-03-01T11:07:57;36.42;;;22.15;;
41167;SDS011;26906;45.658;9.272;2023-03-01T11:10:25;31.30;;;19.77;;
41167;SDS011;26906;45.658;9.272;2023-03-01T11:12:56;28.50;;;20.38;;
41167;SDS011;26906;45.658;9.272;2023-03-01T11:15:41;31.52;;;21.08;;
41167;SDS011;26906;45.658;9.272;2023-03-01T11:18:25;25.65;;;19.02;;
41167;SDS011;26906;45.658;9.272;2023-03-01T11:20:53;32.63;;;19.80;;
41167;SDS011;26906;45.658;9.272;2023-03-01T11:23:20;25.27;;;18.48;;
41167;SDS011;26906;45.658;9.272;2023-03-01T11:25:57;24.63;;;17.98;;
41167;SDS011;26906;45.658;9.272;2023-03-01T11:28:29;29.73;;;19.98;;
41167;SDS011;26906;45.658;9.272;2023-03-01T11:30:57;30.88;;;19.38;;
41167;SDS011;26906;45.658;9.272;2023-03-01T11:38:40;27.92;;;19.80;;
41167;SDS011;26906;45.658;9.272;2023-03-01T11:43:56;28.15;;;19.42;;
41167;SDS011;26906;45.658;9.272;2023-03-01T12:15:07;27.77;;;19.45;;
41167;SDS011;26906;45.658;9.272;2023-03-01T12:20:58;28.70;;;20.45;;
41167;SDS011;26906;45.658;9.272;2023-03-01T12:46:15;28.27;;;20.52;;
41167;SDS011;26906;45.658;9.272;2023-03-01T12:49:08;29.67;;;20.27;;
41167;SDS011;26906;45.658;9.272;2023-03-01T12:52:00;27.20;;;19.30;;
41167;SDS011;26906;45.658;9.272;2023-03-01T12:54:36;31.45;;;19.05;;
41167;SDS011;26906;45.658;9.272;2023-03-01T12:57:04;30.23;;;20.25;;
41167;SDS011;26906;45.658;9.272;2023-03-01T13:02:23;23.17;;;17.63;;
41167;SDS011;26906;45.658;9.272;2023-03-01T13:05:33;28.85;;;18.75;;
41167;SDS011;26906;45.658;9.272;2023-03-01T13:11:00;26.80;;;18.52;;
41167;SDS011;26906;45.658;9.272;2023-03-01T13:13:29;24.88;;;18.35;;
41167;SDS011;26906;45.658;9.272;2023-03-01T13:15:55;23.88;;;18.00;;
41167;SDS011;26906;45.658;9.272;2023-03-01T13:20:52;29.05;;;19.02;;
41167;SDS011;26906;45.658;9.272;2023-03-01T13:31:10;26.20;;;19.05;;
41167;SDS011;26906;45.658;9.272;2023-03-01T13:33:56;28.10;;;18.88;;
41167;SDS011;26906;45.658;9.272;2023-03-01T13:38:57;27.27;;;18.70;;
41167;SDS011;26906;45.658;9.272;2023-03-01T13:54:59;28.05;;;19.15;;
41167;SDS011;26906;45.658;9.272;2023-03-01T13:57:31;29.63;;;20.08;;
41167;SDS011;26906;45.658;9.272;2023-03-01T13:59:59;28.88;;;19.88;;
41167;SDS011;26906;45.658;9.272;2023-03-01T14:02:25;30.65;;;19.13;;
41167;SDS011;26906;45.658;9.272;2023-03-01T14:04:57;28.08;;;19.13;;
41167;SDS011;26906;45.658;9.272;2023-03-01T14:07:24;27.60;;;19.20;;
41167;SDS011;26906;45.658;9.272;2023-03-01T14:09:54;25.90;;;18.60;;
41167;SDS011;26906;45.658;9.272;2023-03-01T14:12:30;30.90;;;19.83;;
41167;SDS011;26906;45.658;9.272;2023-03-01T14:17:38;26.95;;;19.05;;
41167;SDS011;26906;45.658;9.272;2023-03-01T14:22:44;32.50;;;19.67;;
41167;SDS011;26906;45.658;9.272;2023-03-01T14:27:44;27.67;;;20.07;;
41167;SDS011;26906;45.658;9.272;2023-03-01T14:30:23;30.20;;;20.40;;
41167;SDS011;26906;45.658;9.272;2023-03-01T14:32:53;30.85;;;19.52;;
41167;SDS011;26906;45.658;9.272;2023-03-01T14:35:21;31.77;;;20.42;;
41167;SDS011;26906;45.658;9.272;2023-03-01T14:37:49;34.35;;;22.00;;
41167;SDS011;26906;45.658;9.272;2023-03-01T14:40:25;30.92;;;21.45;;
41167;SDS011;26906;45.658;9.272;2023-03-01T14:42:59;32.65;;;20.15;;
41167;SDS011;26906;45.658;9.272;2023-03-01T14:45:33;31.02;;;20.52;;
41167;SDS011;26906;45.658;9.272;2023-03-01T14:47:59;30.85;;;19.88;;
41167;SDS011;26906;45.658;9.272;2023-03-01T14:50:30;31.52;;;20.08;;
41167;SDS011;26906;45.658;9.272;2023-03-01T14:53:01;29.48;;;20.35;;
41167;SDS011;26906;45.658;9.272;2023-03-01T14:55:36;28.02;;;19.58;;
41167;SDS011;26906;45.658;9.272;2023-03-01T14:58:09;30.17;;;20.27;;
41167;SDS011;26906;45.658;9.272;2023-03-01T15:00:38;32.03;;;19.45;;
41167;SDS011;26906;45.658;9.272;2023-03-01T15:03:41;28.83;;;20.80;;
41167;SDS011;26906;45.658;9.272;2023-03-01T15:06:02;29.70;;;19.50;;
41167;SDS011;26906;45.658;9.272;2023-03-01T15:08:29;31.92;;;19.77;;
41167;SDS011;26906;45.658;9.272;2023-03-01T15:14:01;27.15;;;19.95;;
41167;SDS011;26906;45.658;9.272;2023-03-01T15:17:16;28.13;;;20.25;;
41167;SDS011;26906;45.658;9.272;2023-03-01T15:19:52;28.25;;;19.35;;
41167;SDS011;26906;45.658;9.272;2023-03-01T15:22:18;32.33;;;18.98;;
41167;SDS011;26906;45.658;9.272;2023-03-01T15:24:46;31.75;;;19.48;;
41167;SDS011;26906;45.658;9.272;2023-03-01T15:27:15;31.55;;;18.98;;
41167;SDS011;26906;45.658;9.272;2023-03-01T15:29:48;28.60;;;19.40;;
41167;SDS011;26906;45.658;9.272;2023-03-01T15:32:23;28.33;;;20.35;;
41167;SDS011;26906;45.658;9.272;2023-03-01T15:34:54;29.30;;;20.20;;
41167;SDS011;26906;45.658;9.272;2023-03-01T15:40:22;31.73;;;20.35;;
41167;SDS011;26906;45.658;9.272;2023-03-01T15:42:58;31.75;;;21.40;;
41167;SDS011;26906;45.658;9.272;2023-03-01T15:45:28;32.28;;;22.58;;
41167;SDS011;26906;45.658;9.272;2023-03-01T15:48:05;34.60;;;22.65;;
41167;SDS011;26906;45.658;9.272;2023-03-01T15:50:42;31.20;;;21.88;;
41167;SDS011;26906;45.658;9.272;2023-03-01T15:53:12;30.40;;;21.85;;
41167;SDS011;26906;45.658;9.272;2023-03-01T15:55:40;30.33;;;21.42;;
41167;SDS011;26906;45.658;9.272;2023-03-01T15:58:09;33.38;;;22.30;;
41167;SDS011;26906;45.658;9.272;2023-03-01T16:00:42;31.73;;;21.73;;
41167;SDS011;26906;45.658;9.272;2023-03-01T16:03:16;32.45;;;22.30;;
41167;SDS011;26906;45.658;9.272;2023-03-01T16:05:46;33.08;;;21.20;;
41167;SDS011;26906;45.658;9.272;2023-03-01T16:08:13;30.15;;;21.42;;
41167;SDS011;26906;45.658;9.272;2023-03-01T16:10:40;31.45;;;21.33;;
41167;SDS011;26906;45.658;9.272;2023-03-01T16:13:10;37.10;;;22.63;;
41167;SDS011;26906;45.658;9.272;2023-03-01T16:15:37;32.88;;;22.73;;
41167;SDS011;26906;45.658;9.272;2023-03-01T16:18:05;31.83;;;21.95;;
41167;SDS011;26906;45.658;9.272;2023-03-01T16:20:32;31.23;;;22.65;;
41167;SDS011;26906;45.658;9.272;2023-03-01T16:23:02;38.17;;;22.65;;
41167;SDS011;26906;45.658;9.272;2023-03-01T16:27:58;32.45;;;21.85;;
41167;SDS011;26906;45.658;9.272;2023-03-01T16:30:29;37.20;;;22.67;;
41167;SDS011;26906;45.658;9.272;2023-03-01T16:32:54;33.80;;;21.15;;
41167;SDS011;26906;45.658;9.272;2023-03-01T16:35:20;39.60;;;22.02;;
41167;SDS011;26906;45.658;9.272;2023-03-01T16:37:47;35.67;;;22.88;;
41167;SDS011;26906;45.658;9.272;2023-03-01T16:40:21;30.10;;;21.52;;
41167;SDS011;26906;45.658;9.272;2023-03-01T16:42:51;35.30;;;23.35;;
41167;SDS011;26906;45.658;9.272;2023-03-01T16:45:18;33.13;;;21.98;;
41167;SDS011;26906;45.658;9.272;2023-03-01T16:47:46;36.17;;;21.20;;
41167;SDS011;26906;45.658;9.272;2023-03-01T16:50:12;34.75;;;22.50;;
41167;SDS011;26906;45.658;9.272;2023-03-01T16:52:38;36.67;;;22.23;;
41167;SDS011;26906;45.658;9.272;2023-03-01T16:55:04;42.15;;;22.27;;
41167;SDS011;26906;45.658;9.272;2023-03-01T16:57:35;32.35;;;21.30;;
41167;SDS011;26906;45.658;9.272;2023-03-01T17:00:03;34.65;;;22.25;;
41167;SDS011;26906;45.658;9.272;2023-03-01T17:02:32;33.47;;;21.58;;
41167;SDS011;26906;45.658;9.272;2023-03-01T17:05:01;36.08;;;22.80;;
41167;SDS011;26906;45.658;9.272;2023-03-01T17:07:28;36.10;;;23.58;;
41167;SDS011;26906;45.658;9.272;2023-03-01T17:09:58;34.05;;;22.92;;
41167;SDS011;26906;45.658;9.272;2023-03-01T17:12:25;33.97;;;23.20;;
41167;SDS011;26906;45.658;9.272;2023-03-01T17:14:52;33.63;;;21.90;;
41167;SDS011;26906;45.658;9.272;2023-03-01T17:17:18;38.42;;;23.52;;
41167;SDS011;26906;45.658;9.272;2023-03-01T17:19:43;32.28;;;21.70;;
41167;SDS011;26906;45.658;9.272;2023-03-01T17:22:10;31.10;;;21.13;;
41167;SDS011;26906;45.658;9.272;2023-03-01T17:24:38;32.38;;;22.13;;
41167;SDS011;26906;45.658;9.272;2023-03-01T17:27:05;36.35;;;22.33;;
41167;SDS011;26906;45.658;9.272;2023-03-01T17:29:32;32.95;;;21.75;;
41167;SDS011;26906;45.658;9.272;2023-03-01T17:31:58;31.85;;;20.52;;
41167;SDS011;26906;45.658;9.272;2023-03-01T17:34:24;30.05;;;18.88;;
41167;SDS011;26906;45.658;9.272;2023-03-01T17:36:51;28.92;;;19.02;;
41167;SDS011;26906;45.658;9.272;2023-03-01T17:39:17;26.13;;;18.13;;
41167;SDS011;26906;45.658;9.272;2023-03-01T17:41:52;26.73;;;20.42;;
41167;SDS011;26906;45.658;9.272;2023-03-01T17:44:19;31.73;;;21.42;;
41167;SDS011;26906;45.658;9.272;2023-03-01T17:46:45;29.80;;;20.15;;
41167;SDS011;26906;45.658;9.272;2023-03-01T17:49:11;30.63;;;20.17;;
41167;SDS011;26906;45.658;9.272;2023-03-01T17:51:37;31.55;;;21.27;;
41167;SDS011;26906;45.658;9.272;2023-03-01T17:54:03;31.10;;;20.65;;
41167;SDS011;26906;45.658;9.272;2023-03-01T17:56:32;34.45;;;21.30;;
41167;SDS011;26906;45.658;9.272;2023-03-01T17:59:03;26.75;;;19.40;;
41167;SDS011;26906;45.658;9.272;2023-03-01T18:01:29;34.40;;;21.88;;
41167;SDS011;26906;45.658;9.272;2023-03-01T18:03:55;29.23;;;19.98;;
41167;SDS011;26906;45.658;9.272;2023-03-01T18:06:24;29.58;;;20.88;;
41167;SDS011;26906;45.658;9.272;2023-03-01T18:08:54;33.50;;;21.45;;
41167;SDS011;26906;45.658;9.272;2023-03-01T18:11:21;27.73;;;20.83;;
41167;SDS011;26906;45.658;9.272;2023-03-01T18:13:48;32.35;;;20.92;;
41167;SDS011;26906;45.658;9.272;2023-03-01T18:16:15;27.90;;;20.92;;
41167;SDS011;26906;45.658;9.272;2023-03-01T18:18:43;37.92;;;22.10;;
41167;SDS011;26906;45.658;9.272;2023-03-01T18:21:09;31.42;;;21.33;;
41167;SDS011;26906;45.658;9.272;2023-03-01T18:23:36;30.00;;;21.65;;
41167;SDS011;26906;45.658;9.272;2023-03-01T18:26:04;30.48;;;20.98;;
41167;SDS011;26906;45.658;9.272;2023-03-01T18:28:35;33.42;;;21.95;;
41167;SDS011;26906;45.658;9.272;2023-03-01T18:31:03;33.58;;;21.77;;
41167;SDS011;26906;45.658;9.272;2023-03-01T18:33:37;34.67;;;22.98;;
41167;SDS011;26906;45.658;9.272;2023-03-01T18:36:03;30.15;;;21.88;;
41167;SDS011;26906;45.658;9.272;2023-03-01T18:38:30;36.22;;;22.63;;
41167;SDS011;26906;45.658;9.272;2023-03-01T18:40:56;36.33;;;23.85;;
41167;SDS011;26906;45.658;9.272;2023-03-01T18:43:23;32.28;;;23.20;;
41167;SDS011;26906;45.658;9.272;2023-03-01T18:45:56;33.92;;;22.73;;
41167;SDS011;26906;45.658;9.272;2023-03-01T18:48:25;32.58;;;23.48;;
41167;SDS011;26906;45.658;9.272;2023-03-01T18:50:50;36.70;;;24.13;;
41167;SDS011;26906;45.658;9.272;2023-03-01T18:53:16;35.38;;;24.17;;
41167;SDS011;26906;45.658;9.272;2023-03-01T18:55:42;36.47;;;23.35;;
41167;SDS011;26906;45.658;9.272;2023-03-01T18:58:07;37.40;;;24.50;;
41167;SDS011;26906;45.658;9.272;2023-03-01T19:00:34;35.33;;;23.63;;
41167;SDS011;26906;45.658;9.272;2023-03-01T19:03:00;34.50;;;23.95;;
41167;SDS011;26906;45.658;9.272;2023-03-01T19:05:26;33.65;;;23.70;;
41167;SDS011;26906;45.658;9.272;2023-03-01T19:07:52;34.55;;;23.40;;
41167;SDS011;26906;45.658;9.272;2023-03-01T19:10:18;39.20;;;24.80;;
41167;SDS011;26906;45.658;9.272;2023-03-01T19:12:44;38.35;;;23.70;;
41167;SDS011;26906;45.658;9.272;2023-03-01T19:15:10;35.13;;;24.05;;
41167;SDS011;26906;45.658;9.272;2023-03-01T19:17:36;33.65;;;22.95;;
41167;SDS011;26906;45.658;9.272;2023-03-01T19:20:02;32.95;;;22.95;;
41167;SDS011;26906;45.658;9.272;2023-03-01T19:22:29;33.00;;;22.35;;
41167;SDS011;26906;45.658;9.272;2023-03-01T19:24:54;31.88;;;22.75;;
41167;SDS011;26906;45.658;9.272;2023-03-01T19:27:20;32.60;;;23.63;;
41167;SDS011;26906;45.658;9.272;2023-03-01T19:29:53;35.90;;;23.77;;
41167;SDS011;26906;45.658;9.272;2023-03-01T19:32:19;33.50;;;22.33;;
41167;SDS011;26906;45.658;9.272;2023-03-01T19:34:44;35.42;;;23.50;;
41167;SDS011;26906;45.658;9.272;2023-03-01T19:37:10;33.15;;;23.27;;
41167;SDS011;26906;45.658;9.272;2023-03-01T19:39:37;34.40;;;24.75;;
41167;SDS011;26906;45.658;9.272;2023-03-01T19:42:03;35.55;;;24.13;;
41167;SDS011;26906;45.658;9.272;2023-03-01T19:44:29;37.88;;;24.20;;
41167;SDS011;26906;45.658;9.272;2023-03-01T19:46:55;35.30;;;25.02;;
41167;SDS011;26906;45.658;9.272;2023-03-01T19:49:21;39.25;;;26.30;;
41167;SDS011;26906;45.658;9.272;2023-03-01T19:51:47;37.03;;;26.75;;
41167;SDS011;26906;45.658;9.272;2023-03-01T19:54:13;35.90;;;25.55;;
41167;SDS011;26906;45.658;9.272;2023-03-01T19:56:44;35.03;;;24.90;;
41167;SDS011;26906;45.658;9.272;2023-03-01T19:59:11;33.00;;;23.52;;
41167;SDS011;26906;45.658;9.272;2023-03-01T20:01:37;36.15;;;23.88;;
41167;SDS011;26906;45.658;9.272;2023-03-01T20:04:06;35.17;;;23.60;;
41167;SDS011;26906;45.658;9.272;2023-03-01T20:06:33;27.88;;;20.48;;
41167;SDS011;26906;45.658;9.272;2023-03-01T20:09:00;27.20;;;20.98;;
41167;SDS011;26906;45.658;9.272;2023-03-01T20:11:27;24.27;;;18.67;;
41167;SDS011;26906;45.658;9.272;2023-03-01T20:13:53;25.08;;;20.13;;
41167;SDS011;26906;45.658;9.272;2023-03-01T20:16:19;24.83;;;19.15;;
41167;SDS011;26906;45.658;9.272;2023-03-01T20:18:46;25.50;;;18.63;;
41167;SDS011;26906;45.658;9.272;2023-03-01T20:21:14;25.33;;;19.75;;
41167;SDS011;26906;45.658;9.272;2023-03-01T20:23:42;25.42;;;18.88;;
41167;SDS011;26906;45.658;9.272;2023-03-01T20:26:10;20.10;;;16.70;;
41167;SDS011;26906;45.658;9.272;2023-03-01T20:28:40;20.30;;;15.55;;
41167;SDS011;26906;45.658;9.272;2023-03-01T20:31:07;17.30;;;15.35;;
41167;SDS011;26906;45.658;9.272;2023-03-01T20:33:35;18.55;;;15.10;;
41167;SDS011;26906;45.658;9.272;2023-03-01T20:36:01;18.63;;;14.63;;
41167;SDS011;26906;45.658;9.272;2023-03-01T20:38:27;18.58;;;14.30;;
41167;SDS011;26906;45.658;9.272;2023-03-01T20:41:00;19.30;;;15.32;;
41167;SDS011;26906;45.658;9.272;2023-03-01T20:43:30;18.48;;;15.55;;
41167;SDS011;26906;45.658;9.272;2023-03-01T20:45:56;18.77;;;14.90;;
41167;SDS011;26906;45.658;9.272;2023-03-01T20:48:22;18.35;;;14.75;;
41167;SDS011;26906;45.658;9.272;2023-03-01T20:50:49;17.90;;;13.52;;
41167;SDS011;26906;45.658;9.272;2023-03-01T20:53:14;16.67;;;14.30;;
41167;SDS011;26906;45.658;9.272;2023-03-01T20:55:43;17.45;;;14.30;;
41167;SDS011;26906;45.658;9.272;2023-03-01T20:58:08;23.23;;;17.27;;
41167;SDS011;26906;45.658;9.272;2023-03-01T21:00:34;18.90;;;14.70;;
41167;SDS011;26906;45.658;9.272;2023-03-01T21:03:00;17.33;;;15.20;;
41167;SDS011;26906;45.658;9.272;2023-03-01T21:05:28;17.17;;;15.32;;
41167;SDS011;26906;45.658;9.272;2023-03-01T21:07:53;16.73;;;14.77;;
41167;SDS011;26906;45.658;9.272;2023-03-01T21:10:19;16.17;;;14.18;;
41167;SDS011;26906;45.658;9.272;2023-03-01T21:12:45;17.80;;;14.23;;
41167;SDS011;26906;45.658;9.272;2023-03-01T21:15:10;17.33;;;13.50;;
41167;SDS011;26906;45.658;9.272;2023-03-01T21:17:36;15.05;;;13.18;;
41167;SDS011;26906;45.658;9.272;2023-03-01T21:20:02;17.20;;;14.40;;
41167;SDS011;26906;45.658;9.272;2023-03-01T21:22:29;18.40;;;15.13;;
41167;SDS011;26906;45.658;9.272;2023-03-01T21:24:56;18.73;;;14.75;;
41167;SDS011;26906;45.658;9.272;2023-03-01T21:27:23;17.92;;;14.68;;
41167;SDS011;26906;45.658;9.272;2023-03-01T21:29:48;18.77;;;15.05;;
41167;SDS011;26906;45.658;9.272;2023-03-01T21:32:14;19.75;;;14.40;;
41167;SDS011;26906;45.658;9.272;2023-03-01T21:34:40;19.10;;;15.10;;
41167;SDS011;26906;45.658;9.272;2023-03-01T21:37:06;20.60;;;14.63;;
41167;SDS011;26906;45.658;9.272;2023-03-01T21:39:34;15.77;;;13.85;;
